Time;durP1;ratioP1;P1;durP2;ratioP2;P2;SDS_P1;SDS_P2;PMS_P1;PMS_P2;Temp;Humidity;BMP_temperature;BMP_pressure;BME280_temperature;BME280_humidity;BME280_pressure;Samples;Min_cycle;Max_cycle;Signal;HPM_P1;HPM_P2
2021/09/01 00:02:19;;;;;;;14.07;5.97;;;13.00;99.90;;;11.63;100.00;102012.00;5035157;28;20037;-78
2021/09/01 00:04:45;;;;;;;9.55;5.97;;;12.90;99.90;;;11.58;100.00;102003.38;5049234;28;20066;-77
2021/09/01 00:07:11;;;;;;;10.90;6.00;;;12.90;99.90;;;11.57;100.00;101996.38;5043038;28;20032;-78
2021/09/01 00:09:38;;;;;;;10.57;5.53;;;12.80;99.90;;;11.59;100.00;102005.09;5050035;28;20491;-78
2021/09/01 00:12:06;;;;;;;10.68;5.70;;;12.90;99.90;;;11.57;100.00;102007.78;5053901;28;20024;-77
2021/09/01 00:14:33;;;;;;;11.15;6.20;;;12.90;99.90;;;11.55;100.00;102004.31;5050848;28;20081;-78
2021/09/01 00:17:00;;;;;;;11.50;5.60;;;12.80;99.90;;;11.52;100.00;102003.56;5016271;28;20051;-78
2021/09/01 00:19:27;;;;;;;14.07;5.97;;;12.90;99.90;;;11.71;100.00;102012.66;5042052;28;20045;-78
2021/09/01 00:21:54;;;;;;;11.43;5.28;;;13.00;99.90;;;11.85;100.00;102028.03;5031064;28;20068;-78
2021/09/01 00:24:23;;;;;;;10.48;5.53;;;13.00;99.90;;;11.72;100.00;102001.16;5026670;28;20495;-78
2021/09/01 00:26:49;;;;;;;9.40;5.05;;;13.00;99.90;;;11.72;100.00;102011.72;5046287;28;20121;-78
2021/09/01 00:29:15;;;;;;;11.18;4.75;;;13.00;99.90;;;11.73;100.00;102009.94;5032128;28;20052;-78
2021/09/01 00:31:42;;;;;;;8.65;4.78;;;13.00;99.90;;;11.75;100.00;102005.47;5041500;28;20025;-78
2021/09/01 00:34:08;;;;;;;16.80;4.90;;;13.00;99.90;;;11.80;100.00;102017.63;5052358;28;20024;-78
2021/09/01 00:36:34;;;;;;;11.75;4.93;;;13.10;99.90;;;11.88;100.00;102030.63;5052126;28;20776;-78
2021/09/01 00:39:00;;;;;;;8.57;4.80;;;13.20;99.90;;;12.02;100.00;102038.97;5033879;28;21509;-78
2021/09/01 00:41:28;;;;;;;10.73;4.47;;;13.20;99.90;;;12.08;100.00;102030.00;5052698;28;20012;-78
2021/09/01 00:43:57;;;;;;;8.50;4.53;;;13.30;99.90;;;12.14;100.00;102028.91;5045059;28;20391;-78
2021/09/01 00:46:26;;;;;;;9.95;4.70;;;13.40;99.90;;;12.14;100.00;102032.44;5052601;28;20392;-78
2021/09/01 00:48:53;;;;;;;12.73;4.85;;;13.50;99.90;;;12.17;100.00;102028.84;5036294;28;20024;-78
2021/09/01 00:51:21;;;;;;;9.60;4.85;;;13.40;99.90;;;12.11;100.00;102028.09;5034313;28;20388;-78
2021/09/01 00:53:48;;;;;;;8.38;4.80;;;13.40;99.90;;;12.05;100.00;102023.03;5067008;28;20428;-78
2021/09/01 00:56:22;;;;;;;9.90;4.70;;;13.40;99.90;;;12.02;100.00;102020.47;5042811;28;20055;-78
2021/09/01 00:58:49;;;;;;;14.52;4.60;;;13.30;99.90;;;11.97;100.00;102017.13;5034209;28;20044;-78
2021/09/01 01:01:17;;;;;;;10.23;4.72;;;13.30;99.90;;;11.93;100.00;102019.94;5054081;28;20056;-78
2021/09/01 01:03:52;;;;;;;9.80;4.22;;;13.20;99.90;;;11.89;100.00;102019.16;5051556;28;20046;-77
2021/09/01 01:06:26;;;;;;;12.30;4.35;;;13.20;99.90;;;11.85;100.00;102015.69;5041042;28;20029;-78
2021/09/01 01:08:56;;;;;;;12.13;4.22;;;13.10;99.90;;;11.80;100.00;102012.34;5024741;28;20708;-78
2021/09/01 01:11:23;;;;;;;12.23;4.57;;;13.10;99.90;;;11.77;100.00;102006.28;5032929;28;21254;-85
2021/09/01 01:13:51;;;;;;;7.30;4.28;;;13.10;99.90;;;11.76;100.00;102025.69;4986432;28;20430;-78
2021/09/01 01:16:24;;;;;;;10.77;4.80;;;13.00;99.90;;;11.63;100.00;102020.78;5032655;28;20195;-78
2021/09/01 01:18:56;;;;;;;6.78;4.07;;;12.90;99.90;;;11.53;100.00;102000.84;5036014;28;20436;-78
2021/09/01 01:21:27;;;;;;;11.32;4.88;;;12.90;99.90;;;11.59;100.00;102003.31;4993558;28;20037;-79
2021/09/01 01:23:59;;;;;;;8.82;4.38;;;12.90;99.90;;;11.65;100.00;102005.78;5034545;28;20082;-78
2021/09/01 01:26:29;;;;;;;9.75;4.65;;;13.00;99.90;;;11.74;100.00;102009.03;5012455;28;20515;-78
2021/09/01 01:29:00;;;;;;;15.20;5.53;;;13.00;99.90;;;11.74;100.00;102006.41;5000088;28;20032;-79
2021/09/01 01:31:27;;;;;;;17.10;4.65;;;13.00;99.90;;;11.65;100.00;101997.84;5017602;28;20037;-79
2021/09/01 01:33:53;;;;;;;13.75;4.20;;;13.00;99.90;;;11.59;100.00;101989.28;5036308;28;20040;-78
2021/09/01 01:36:20;;;;;;;10.88;4.35;;;;;;;11.49;100.00;101989.56;5026400;28;20393;-78
2021/09/01 01:38:46;;;;;;;8.18;4.40;;;12.80;99.90;;;11.43;100.00;101986.25;5050380;28;20113;-78
2021/09/01 01:41:13;;;;;;;9.70;4.55;;;12.80;99.90;;;11.42;100.00;101987.13;5036131;28;20025;-78
2021/09/01 01:43:43;;;;;;;9.30;4.43;;;12.70;99.90;;;11.40;100.00;102123.47;5009135;28;20094;-78
2021/09/01 01:46:09;;;;;;;8.88;4.28;;;12.70;99.90;;;11.38;100.00;102069.88;5051552;28;20403;-78
2021/09/01 01:48:35;;;;;;;15.02;4.65;;;12.70;99.90;;;11.25;100.00;102035.97;5031888;28;20031;-78
2021/09/01 01:51:02;;;;;;;9.48;4.60;;;12.50;99.90;;;11.17;100.00;102016.88;5046558;28;20042;-78
2021/09/01 01:53:29;;;;;;;11.65;4.63;;;12.50;99.90;;;11.21;100.00;102013.25;5017679;28;20032;-78
2021/09/01 01:55:56;;;;;;;8.63;5.32;;;12.50;99.90;;;11.21;100.00;102015.88;5028630;28;20339;-78
2021/09/01 01:58:22;;;;;;;11.02;4.68;;;12.50;99.90;;;11.17;100.00;102014.22;5035621;28;20048;-78
2021/09/01 02:00:49;;;;;;;13.93;4.97;;;12.50;99.90;;;11.20;100.00;102013.28;5034750;28;20025;-78
2021/09/01 02:03:17;;;;;;;9.57;4.47;;;12.50;99.90;;;11.15;100.00;102012.56;5036227;28;20029;-78
2021/09/01 02:05:44;;;;;;;9.15;5.00;;;12.40;99.90;;;11.08;100.00;102014.50;5044112;28;20037;-78
2021/09/01 02:08:10;;;;;;;9.35;4.50;;;12.40;99.90;;;11.03;100.00;102004.06;5019526;28;20508;-78
2021/09/01 02:10:36;;;;;;;12.07;5.00;;;12.30;99.90;;;11.02;100.00;102006.75;5043532;28;20067;-79
2021/09/01 02:13:03;;;;;;;11.40;4.78;;;12.30;99.90;;;11.02;100.00;102017.31;5025552;28;20032;-78
2021/09/01 02:15:32;;;;;;;15.30;5.55;;;12.30;99.90;;;11.06;100.00;102024.22;5025877;28;20077;-78
2021/09/01 02:17:58;;;;;;;11.43;4.65;;;12.40;99.90;;;11.05;100.00;102011.94;5041353;28;20051;-78
2021/09/01 02:20:24;;;;;;;11.98;5.35;;;12.30;99.90;;;11.10;100.00;102041.69;5017105;28;20526;-78
2021/09/01 02:22:50;;;;;;;10.23;5.47;;;12.40;99.90;;;11.06;100.00;102026.88;5027250;28;20027;-78
2021/09/01 02:25:16;;;;;;;9.68;5.18;;;12.40;99.90;;;10.98;100.00;102010.38;5023987;28;20438;-78
2021/09/01 02:27:42;;;;;;;8.65;4.63;;;12.30;99.90;;;10.99;100.00;102007.72;5034607;28;20070;-78
2021/09/01 02:30:12;;;;;;;11.55;5.45;;;12.30;99.90;;;10.96;100.00;102012.19;5017758;28;20050;-78
2021/09/01 02:32:38;;;;;;;11.05;5.45;;;12.30;99.90;;;10.94;100.00;102009.59;5020356;28;20021;-78
2021/09/01 02:35:06;;;;;;;12.80;5.35;;;12.20;99.90;;;10.88;100.00;102013.28;5045349;28;20142;-78
2021/09/01 02:37:32;;;;;;;11.98;5.00;;;12.20;99.90;;;10.78;100.00;102000.41;5041771;28;20136;-79
2021/09/01 02:39:58;;;;;;;13.00;5.60;;;12.10;99.90;;;10.64;100.00;101990.22;5041751;28;20606;-79
2021/09/01 02:42:27;;;;;;;9.95;5.03;;;12.00;99.90;;;10.64;100.00;101995.50;5033862;28;20059;-78
2021/09/01 02:44:53;;;;;;;7.53;4.97;;;12.00;99.90;;;10.56;100.00;101984.28;5050356;28;20502;-78
2021/09/01 02:47:19;;;;;;;10.75;5.53;;;11.90;99.90;;;10.50;100.00;101984.47;5031396;28;20025;-78
2021/09/01 02:49:45;;;;;;;8.68;5.20;;;11.80;99.90;;;10.45;100.00;101985.47;5023326;28;20032;-78
2021/09/01 02:52:11;;;;;;;14.60;5.55;;;11.80;99.90;;;10.41;100.00;101980.28;5014637;28;20069;-78
2021/09/01 02:54:37;;;;;;;13.65;5.55;;;11.80;99.90;;;10.33;100.00;101974.38;5049813;28;20066;-78
2021/09/01 02:57:03;;;;;;;9.95;4.90;;;11.70;99.90;;;10.27;100.00;101975.34;5018699;28;20248;-78
2021/09/01 02:59:29;;;;;;;13.27;5.15;;;11.60;99.90;;;10.12;100.00;101965.22;5040376;28;20074;-78
2021/09/01 03:01:55;;;;;;;10.68;5.63;;;11.50;99.90;;;10.07;100.00;101983.75;5042287;28;20115;-78
2021/09/01 03:04:21;;;;;;;11.45;5.50;;;11.40;99.90;;;9.97;100.00;102005.91;5002212;28;20073;-78
2021/09/01 03:06:47;;;;;;;12.05;4.72;;;11.40;99.90;;;9.92;100.00;102008.66;5041878;28;20032;-78
2021/09/01 03:09:13;;;;;;;12.63;4.82;;;11.30;99.90;;;9.89;100.00;102042.06;5042141;28;20020;-78
2021/09/01 03:11:39;;;;;;;14.65;4.70;;;11.30;99.90;;;9.88;100.00;102072.78;5034613;28;20480;-78
2021/09/01 03:14:05;;;;;;;12.82;5.53;;;11.30;99.90;;;9.88;100.00;102099.06;5049545;28;20058;-78
2021/09/01 03:16:31;;;;;;;15.93;5.70;;;11.30;99.90;;;9.90;100.00;102126.22;5035212;28;20066;-78
2021/09/01 03:18:59;;;;;;;13.00;5.40;;;11.30;99.90;;;9.86;100.00;102117.53;5022820;28;20516;-78
2021/09/01 03:21:25;;;;;;;18.92;7.10;;;11.20;99.90;;;9.81;100.00;102144.84;5022608;28;20028;-78
2021/09/01 03:23:51;;;;;;;36.53;6.28;;;11.20;99.90;;;9.78;100.00;102187.88;5049042;28;20062;-78
2021/09/01 03:26:17;;;;;;;12.48;5.55;;;11.20;99.90;;;9.74;100.00;102198.44;5041772;28;20070;-78
2021/09/01 03:28:43;;;;;;;15.50;5.60;;;11.10;99.90;;;9.73;100.00;102238.81;5034119;28;20045;-78
2021/09/01 03:31:09;;;;;;;15.43;5.97;;;11.10;99.90;;;9.68;100.00;102245.94;5048971;28;20108;-78
2021/09/01 03:33:35;;;;;;;13.52;5.53;;;11.10;99.90;;;9.61;100.00;102282.88;5043131;28;20055;-78
2021/09/01 03:36:05;;;;;;;17.17;6.18;;;11.00;99.90;;;9.58;100.00;102261.88;5024633;28;20109;-78
2021/09/01 03:38:31;;;;;;;11.65;5.80;;;11.00;99.90;;;9.56;100.00;102271.53;5040246;28;20927;-78
2021/09/01 03:40:57;;;;;;;10.95;5.22;;;11.00;99.90;;;9.58;100.00;102306.56;5019185;28;20107;-78
2021/09/01 03:43:23;;;;;;;15.77;6.22;;;11.00;99.90;;;9.56;100.00;102329.41;5029594;28;20283;-78
2021/09/01 03:45:51;;;;;;;11.23;5.50;;;11.10;99.90;;;9.65;100.00;102334.53;5023754;28;20408;-78
2021/09/01 03:48:17;;;;;;;15.60;6.30;;;11.10;99.90;;;9.67;100.00;102365.19;5038312;28;20066;-78
2021/09/01 03:50:43;;;;;;;18.85;5.72;;;11.10;99.90;;;9.74;100.00;102379.94;5042218;28;20032;-78
2021/09/01 03:53:10;;;;;;;18.90;7.10;;;;;;;9.74;100.00;102414.16;5014792;28;20036;-78
2021/09/01 03:55:36;;;;;;;21.55;6.93;;;11.20;99.90;;;9.73;100.00;102429.06;5043479;28;20063;-78
2021/09/01 03:58:02;;;;;;;17.02;7.60;;;11.10;99.90;;;9.74;100.00;102457.13;5022884;28;20047;-78
2021/09/01 04:00:28;;;;;;;14.95;7.15;;;11.20;99.90;;;9.82;100.00;102470.16;5019249;28;20125;-78
2021/09/01 04:02:54;;;;;;;16.33;7.72;;;11.20;99.90;;;9.87;100.00;102492.00;5046162;28;20039;-78
2021/09/01 04:05:20;;;;;;;14.10;7.25;;;11.20;99.90;;;9.83;100.00;102485.06;5036769;28;20110;-78
2021/09/01 04:07:46;;;;;;;12.60;6.47;;;11.20;99.90;;;9.77;100.00;102512.31;5019151;28;20029;-78
2021/09/01 04:10:12;;;;;;;16.98;7.07;;;11.10;99.90;;;9.68;100.00;102532.63;5019120;28;20054;-78
2021/09/01 04:12:38;;;;;;;26.67;7.30;;;11.10;99.90;;;9.59;100.00;102534.50;5014622;28;20143;-78
2021/09/01 04:15:06;;;;;;;11.30;6.22;;;11.00;99.90;;;9.55;100.00;102542.47;5017274;28;20182;-78
2021/09/01 04:17:32;;;;;;;22.67;7.15;;;11.00;99.90;;;9.55;100.00;102566.13;5024352;28;20078;-78
2021/09/01 04:19:58;;;;;;;18.92;7.50;;;11.00;99.90;;;9.57;100.00;102590.66;5020558;28;20469;-78
2021/09/01 04:22:26;;;;;;;15.05;6.40;;;11.00;99.90;;;9.62;100.00;102601.97;5033584;28;20036;-78
2021/09/01 04:24:54;;;;;;;22.65;7.30;;;11.00;99.90;;;9.60;100.00;102594.09;5034457;28;20102;-78
2021/09/01 04:27:20;;;;;;;18.90;6.72;;;11.00;99.90;;;9.67;100.00;102615.06;5017263;28;20112;-78
2021/09/01 04:29:46;;;;;;;17.83;7.47;;;11.10;99.90;;;9.73;100.00;102636.03;5004794;28;20460;-78
2021/09/01 04:32:13;;;;;;;21.60;7.68;;;11.20;99.90;;;9.89;100.00;102668.25;5034731;28;20145;-78
2021/09/01 04:34:39;;;;;;;20.00;8.27;;;11.30;99.90;;;10.00;100.00;102676.88;5010968;28;20425;-78
2021/09/01 04:37:05;;;;;;;21.35;7.93;;;11.50;99.90;;;10.14;100.00;102690.75;5031212;28;20041;-78
2021/09/01 04:39:31;;;;;;;18.13;8.85;;;11.50;99.90;;;10.19;100.00;102714.38;5033904;28;20054;-78
2021/09/01 04:41:57;;;;;;;23.05;8.13;;;11.60;99.90;;;10.23;100.00;102721.34;5049748;28;20059;-78
2021/09/01 04:44:23;;;;;;;31.30;8.65;;;11.70;99.90;;;10.22;100.00;102730.16;5021578;28;20024;-78
2021/09/01 04:46:49;;;;;;;20.52;7.38;;;11.60;99.90;;;10.10;100.00;102709.22;5029465;28;20079;-78
2021/09/01 04:49:15;;;;;;;10.45;5.25;;;11.50;99.90;;;9.85;100.00;102741.13;5047424;28;20054;-78
2021/09/01 04:51:41;;;;;;;10.02;5.30;;;11.30;99.90;;;9.83;100.00;102748.16;5048790;28;20033;-78
2021/09/01 04:54:07;;;;;;;11.30;4.80;;;11.40;99.90;;;9.91;100.00;102755.94;5042379;28;20440;-78
2021/09/01 04:56:33;;;;;;;11.65;5.15;;;11.50;99.90;;;10.06;100.00;102775.09;5034997;28;20067;-78
2021/09/01 04:59:00;;;;;;;19.20;5.43;;;11.50;99.90;;;10.16;100.00;102757.41;5054268;28;20044;-78
2021/09/01 05:01:26;;;;;;;11.02;5.53;;;11.70;99.90;;;10.29;100.00;102802.03;5035065;28;20150;-78
2021/09/01 05:03:52;;;;;;;11.05;5.70;;;11.80;99.90;;;10.31;100.00;102743.22;5044262;28;20133;-78
2021/09/01 05:06:18;;;;;;;11.55;5.30;;;11.90;99.90;;;10.48;100.00;102789.53;5026560;28;20059;-78
2021/09/01 05:08:44;;;;;;;11.35;5.82;;;12.10;99.90;;;10.64;100.00;102828.78;5044419;28;20516;-78
2021/09/01 05:11:10;;;;;;;8.68;5.28;;;12.30;99.90;;;10.80;100.00;102842.66;5027283;28;20045;-78
2021/09/01 05:13:38;;;;;;;16.27;5.55;;;12.60;99.90;;;11.07;100.00;102851.91;5052355;28;20032;-78
2021/09/01 05:16:05;;;;;;;10.90;5.65;;;12.80;99.90;;;11.25;100.00;102869.25;5050455;28;20094;-79
2021/09/01 05:18:31;;;;;;;8.95;5.07;;;13.00;99.90;;;11.44;100.00;102880.34;5035878;28;20075;-79
2021/09/01 05:20:59;;;;;;;10.48;5.78;;;13.40;99.90;;;11.85;100.00;102910.47;5050490;28;20484;-79
2021/09/01 05:23:35;;;;;;;14.50;6.25;;;13.90;99.90;;;12.46;100.00;102936.69;5011575;28;20402;-79
2021/09/01 05:26:04;;;;;;;10.17;5.20;;;14.50;99.90;;;13.06;100.00;102896.66;5026563;28;20028;-79
2021/09/01 05:28:37;;;;;;;12.63;4.90;;;15.30;99.90;;;13.92;100.00;102930.81;5028275;28;20025;-79
2021/09/01 05:31:07;;;;;;;8.32;4.55;;;16.20;99.90;;;14.58;99.29;102931.75;5032800;28;20138;-79
2021/09/01 05:33:43;;;;;;;12.10;4.93;;;16.90;99.90;;;15.39;95.49;102965.56;5026997;28;20028;-79
2021/09/01 05:36:09;;;;;;;;;;;17.30;99.90;;;15.91;92.02;102915.22;5030429;28;22340;-79
2021/09/01 05:38:35;;;;;;;10.73;4.30;;;18.20;99.90;;;16.07;89.73;102960.75;5008726;28;20062;-77
2021/09/01 05:41:04;;;;;;;10.65;4.55;;;18.10;99.90;;;15.88;90.10;102913.56;5026194;28;20020;-79
2021/09/01 05:43:32;;;;;;;13.18;4.70;;;18.00;99.90;;;15.57;90.44;102863.22;5027475;28;20036;-79
2021/09/01 05:45:59;;;;;;;11.93;4.90;;;17.30;99.90;;;14.97;93.87;102797.06;5018395;28;20443;-79
2021/09/01 05:48:26;;;;;;;7.97;4.82;;;16.90;99.90;;;14.42;96.66;102782.81;5026430;28;20021;-79
2021/09/01 05:50:55;;;;;;;12.43;4.93;;;16.50;99.90;;;14.38;98.14;102961.41;5018240;28;20028;-79
2021/09/01 05:53:23;;;;;;;15.52;5.35;;;16.10;99.90;;;14.27;100.00;102919.28;5033772;28;20029;-79
2021/09/01 05:55:52;;;;;;;11.40;5.45;;;16.30;99.90;;;14.60;99.34;102942.28;5044584;28;20021;-79
2021/09/01 05:58:21;;;;;;;13.85;6.03;;;16.00;99.90;;;14.74;99.33;102924.22;5043616;28;20068;-79
2021/09/01 06:01:00;;;;;;;11.95;5.40;;;17.00;99.90;;;15.50;96.39;102938.69;5035059;28;20887;-79
2021/09/01 06:03:41;;;;;;;9.25;4.97;;;17.20;99.90;;;15.43;94.44;102900.84;5041504;28;20039;-79
2021/09/01 06:06:10;;;;;;;10.10;4.63;;;17.00;99.90;;;14.85;96.18;102849.63;5018257;28;20646;-79
2021/09/01 06:08:37;;;;;;;9.23;5.28;;;16.40;99.90;;;14.25;100.00;102815.13;5026316;28;20021;-79
2021/09/01 06:11:05;;;;;;;18.15;6.30;;;15.90;99.90;;;13.95;100.00;102793.00;5025874;28;20028;-79
2021/09/01 06:13:32;;;;;;;14.07;5.78;;;15.70;99.90;;;14.09;100.00;102822.66;5019452;28;20055;-79
2021/09/01 06:15:58;;;;;;;13.73;5.70;;;15.70;99.90;;;14.16;100.00;102812.75;5025227;28;20047;-79
2021/09/01 06:18:25;;;;;;;15.05;5.70;;;15.70;99.90;;;14.28;100.00;102814.19;5016545;28;20086;-79
2021/09/01 06:20:55;;;;;;;11.77;5.50;;;15.00;99.90;;;14.48;100.00;102819.75;5032178;28;20043;-79
2021/09/01 06:23:21;;;;;;;12.25;5.32;;;16.00;99.90;;;14.51;100.00;102822.34;5020666;28;20095;-79
2021/09/01 06:25:47;;;;;;;13.77;5.70;;;15.90;99.90;;;14.42;100.00;102830.53;5030991;28;20126;-79
2021/09/01 06:28:14;;;;;;;12.35;5.75;;;15.90;99.90;;;14.42;100.00;102819.94;5034834;28;20024;-79
2021/09/01 06:30:43;;;;;;;14.65;6.53;;;15.90;99.90;;;14.77;100.00;102839.25;5043164;28;20786;-79
2021/09/01 06:33:09;;;;;;;9.38;5.30;;;16.30;99.90;;;15.20;100.00;102861.78;5025069;28;20033;-79
2021/09/01 06:35:35;;;;;;;10.55;5.63;;;16.80;99.90;;;15.94;100.00;102893.91;5042253;28;20028;-79
2021/09/01 06:38:02;;;;;;;13.10;5.63;;;17.40;99.90;;;16.49;99.51;102918.47;5019161;28;20101;-79
2021/09/01 06:40:28;;;;;;;14.77;6.00;;;17.50;99.90;;;16.25;97.79;102879.50;5043801;28;20124;-79
2021/09/01 06:42:54;;;;;;;13.48;5.72;;;17.60;99.90;;;15.93;100.00;102833.69;5018368;28;20027;-80
2021/09/01 06:45:20;;;;;;;14.90;6.32;;;17.70;99.90;;;16.28;100.00;102858.13;5044618;28;20021;-80
2021/09/01 06:47:51;;;;;;;12.55;5.90;;;17.90;99.90;;;16.46;97.16;102848.56;5019246;28;20206;-80
2021/09/01 06:50:27;;;;;;;10.63;5.47;;;18.60;99.90;;;17.08;93.42;102887.03;5033402;28;20027;-79
2021/09/01 06:52:55;;;;;;;10.50;4.88;;;19.30;99.90;;;17.96;92.27;102959.78;5053025;28;20036;-80
2021/09/01 06:55:21;;;;;;;17.98;5.05;;;20.60;99.90;;;20.15;83.42;103044.06;5032898;28;20031;-80
2021/09/01 06:57:47;;;;;;;10.43;5.43;;;21.20;99.90;;;18.52;85.86;102883.53;5050621;28;20047;-80
2021/09/01 07:00:17;;;;;;;9.50;4.50;;;21.80;99.90;;;20.90;78.00;103058.03;5052524;28;20028;-80
2021/09/01 07:02:46;;;;;;;15.25;5.25;;;23.30;99.90;;;21.02;73.52;102960.13;4992736;28;20064;-80
2021/09/01 07:05:14;;;;;;;13.15;4.65;;;22.90;99.90;;;20.09;77.84;102910.66;5053617;28;20084;-80
2021/09/01 07:07:42;;;;;;;11.90;5.18;;;22.90;99.90;;;20.51;77.25;102938.72;5009888;28;20028;-80
2021/09/01 07:10:10;;;;;;;10.50;4.30;;;23.20;99.90;;;21.50;73.77;103031.53;5016876;28;20029;-80
2021/09/01 07:12:38;;;;;;;9.75;4.57;;;23.70;99.90;;;21.76;73.61;103127.53;5049719;28;20056;-80
2021/09/01 07:15:08;;;;;;;11.10;4.63;;;23.80;99.90;;;22.56;70.42;103058.50;5034955;28;20147;-80
2021/09/01 07:17:36;;;;;;;9.00;4.25;;;24.40;99.90;;;23.07;69.88;102930.00;4998690;28;20051;-80
2021/09/01 07:20:05;;;;;;;6.93;4.15;;;25.00;99.90;;;24.03;65.51;102946.88;5026566;28;20125;-81
2021/09/01 07:22:31;;;;;;;7.47;4.68;;;25.60;99.90;;;24.29;62.80;102947.75;5005912;28;20035;-81
2021/09/01 07:25:00;;;;;;;8.77;4.40;;;25.50;99.90;;;23.64;65.32;102891.25;5009479;28;20100;-81
2021/09/01 07:27:26;;;;;;;6.70;3.63;;;25.90;99.90;;;24.90;61.52;103519.25;5003648;28;20035;-80
2021/09/01 07:29:53;;;;;;;8.98;4.40;;;25.70;99.90;;;21.34;69.12;102958.28;4991051;28;20412;-80
2021/09/01 07:32:26;;;;;;;7.45;4.20;;;24.20;99.90;;;21.69;71.65;102987.59;4985238;28;22055;-80
2021/09/01 07:34:53;;;;;;;5.85;4.03;;;23.70;99.90;;;22.62;70.48;102993.69;5009509;28;20029;-80
2021/09/01 07:37:19;;;;;;;9.40;4.85;;;24.60;99.90;;;22.15;69.91;102848.03;5033146;28;20044;-80
2021/09/01 07:39:52;;;;;;;6.95;3.45;;;24.80;99.90;;;23.09;65.08;102858.22;5033195;28;20090;-80
2021/09/01 07:42:18;;;;;;;10.02;3.80;;;24.60;99.90;;;21.81;68.97;102827.78;5029259;28;20507;-80
2021/09/01 07:44:45;;;;;;;4.57;3.15;;;;;;;20.63;69.86;102772.16;5041850;28;20060;-80
2021/09/01 07:47:11;;;;;;;6.15;3.53;;;23.10;99.90;;;20.71;68.84;102738.72;5050737;28;20120;-81
2021/09/01 07:49:41;;;;;;;8.13;3.38;;;23.30;99.90;;;20.99;70.38;102706.72;5041804;28;20028;-81
2021/09/01 07:52:08;;;;;;;9.43;3.25;;;22.80;99.90;;;20.90;72.04;102697.41;5026127;28;20032;-81
2021/09/01 07:54:35;;;;;;;5.47;3.33;;;23.40;99.90;;;22.65;65.34;102779.53;5036095;28;20095;-78
2021/09/01 07:57:01;;;;;;;8.35;3.35;;;23.80;99.90;;;22.19;61.55;102726.16;5018361;28;20043;-81
2021/09/01 07:59:30;;;;;;;6.68;2.92;;;23.10;99.90;;;20.35;66.40;102612.31;5043832;28;22189;-80
2021/09/01 08:01:58;;;;;;;9.02;3.33;;;22.90;99.90;;;20.06;68.54;102603.28;5032423;28;20117;-81
2021/09/01 08:04:24;;;;;;;7.38;3.17;;;22.40;99.90;;;20.92;66.44;102697.31;5011720;28;20025;-81
2021/09/01 08:06:51;;;;;;;7.20;3.40;;;22.60;99.90;;;20.33;68.27;102634.75;5030714;28;20503;-81
2021/09/01 08:09:19;;;;;;;6.47;3.08;;;22.40;99.90;;;20.32;66.79;102638.38;5003490;28;20031;-81
2021/09/01 08:11:47;;;;;;;12.48;3.10;;;22.70;99.90;;;21.99;62.01;102764.13;5009128;28;20032;-80
2021/09/01 08:14:15;;;;;;;6.47;2.95;;;23.40;99.90;;;21.27;62.84;102721.13;5060244;28;20040;-81
2021/09/01 08:16:42;;;;;;;5.28;2.50;;;23.20;99.90;;;21.58;62.77;102711.25;5050847;28;22929;-81
2021/09/01 08:19:08;;;;;;;4.88;2.70;;;23.50;99.90;;;22.06;61.61;102730.59;5023298;28;20041;-81
2021/09/01 08:21:34;;;;;;;10.52;3.25;;;22.90;99.90;;;20.97;69.58;102647.06;5018339;28;20047;-81
2021/09/01 08:24:02;;;;;;;5.85;2.95;;;23.20;99.90;;;22.45;64.52;102775.47;5015557;28;20029;-81
2021/09/01 08:26:32;;;;;;;7.78;3.47;;;24.10;99.90;;;22.56;65.06;102713.03;5013712;28;20032;-81
2021/09/01 08:28:58;;;;;;;5.57;3.20;;;24.50;99.90;;;24.28;58.74;102843.75;5025770;28;20203;-81
2021/09/01 08:31:24;;;;;;;4.82;2.55;;;25.40;99.90;;;24.60;57.93;102837.91;5043178;28;20020;-81
2021/09/01 08:33:50;;;;;;;5.13;3.15;;;24.80;99.90;;;22.42;64.17;102675.50;5005924;28;20033;-81
2021/09/01 08:36:16;;;;;;;6.60;2.72;;;24.80;99.90;;;24.31;58.31;102789.69;5041975;28;20028;-81
2021/09/01 08:38:42;;;;;;;3.83;2.60;;;24.90;99.90;;;23.30;59.48;102734.94;5058332;28;20450;-80
2021/09/01 08:41:10;;;;;;;6.25;2.85;;;24.60;99.90;;;23.52;55.84;102737.88;5044694;28;20036;-81
2021/09/01 08:43:38;;;;;;;3.58;2.30;;;25.00;99.90;;;24.42;53.50;102761.13;5008247;28;20123;-81
2021/09/01 08:46:04;;;;;;;4.90;2.35;;;25.00;99.90;;;22.79;58.68;102635.47;5031366;28;20040;-81
2021/09/01 08:48:34;;;;;;;3.70;2.22;;;24.40;99.90;;;23.55;57.58;102713.47;5006763;28;20025;-81
2021/09/01 08:51:01;;;;;;;4.28;2.45;;;;;;;24.09;56.23;102730.31;5030735;28;20060;-81
2021/09/01 08:53:27;;;;;;;7.57;2.78;;;24.70;99.90;;;22.38;56.55;102599.72;5045640;28;20115;-81
2021/09/01 08:55:53;;;;;;;8.05;2.60;;;24.70;99.90;;;23.15;55.68;102656.25;5037598;28;20037;-80
2021/09/01 08:58:19;;;;;;;7.95;2.63;;;25.10;99.90;;;23.30;55.26;102640.88;5022308;28;20406;-81
2021/09/01 09:01:01;;;;;;;6.32;2.22;;;24.50;99.90;;;23.13;55.61;102653.69;5021593;28;20108;-81
2021/09/01 09:03:50;;;;;;;5.32;2.85;;;24.60;99.90;;;22.98;58.97;102609.06;4982657;28;20024;-81
2021/09/01 09:06:17;;;;;;;7.40;2.50;;;24.10;99.90;;;21.60;62.49;102525.25;4962598;28;20380;-81
2021/09/01 09:08:44;;;;;;;6.10;2.58;;;24.00;99.90;;;22.45;58.76;102584.06;4988443;28;20121;-81
2021/09/01 09:11:18;;;;;;;3.97;2.17;;;24.00;99.90;;;21.70;58.92;102539.75;4999941;28;20040;-81
2021/09/01 09:13:55;;;;;;;4.35;2.50;;;23.60;99.90;;;21.63;60.74;102545.63;4975745;28;20049;-81
2021/09/01 09:16:42;;;;;;;4.45;2.10;;;23.40;99.90;;;21.21;58.96;102499.16;4982242;28;20123;-81
2021/09/01 09:19:49;;;;;;;;;;;23.10;99.90;;;21.55;57.57;102530.03;4984204;28;20407;-81
2021/09/01 09:23:08;;;;;;;4.00;2.22;;;23.00;99.90;;;21.03;58.30;102488.66;4989257;28;19999;-81
2021/09/01 09:25:43;;;;;;;4.93;2.40;;;22.20;99.90;;;20.21;62.09;102439.25;5000115;28;20043;-81
2021/09/01 09:29:19;;;;;;;7.03;2.30;;;22.00;99.90;;;20.35;61.93;102465.16;4990354;28;20052;-80
2021/09/01 09:32:35;;;;;;;4.72;2.20;;;21.80;99.90;;;20.26;63.22;102469.25;5011755;28;20033;-81
2021/09/01 09:35:24;;;;;;;4.53;2.25;;;21.30;99.90;;;19.81;65.35;102455.00;4993897;28;20037;-81
2021/09/01 09:38:42;;;;;;;4.07;2.22;;;21.40;99.90;;;19.94;63.34;102441.75;5014046;28;20036;-81
2021/09/01 09:42:06;;;;;;;3.67;2.33;;;21.50;99.90;;;20.74;62.01;102505.69;4993641;28;20040;-81
2021/09/01 09:45:35;;;;;;;4.50;2.42;;;21.40;99.90;;;19.27;62.33;102391.25;5015919;28;20278;-80
2021/09/01 09:48:44;;;;;;;5.45;2.25;;;21.00;99.90;;;20.11;62.13;102464.84;5005818;28;20037;-80
2021/09/01 09:52:02;;;;;;;5.88;2.30;;;21.00;99.90;;;20.07;60.69;102471.31;4993730;28;20127;-81
2021/09/01 09:54:44;;;;;;;6.30;2.30;;;21.20;99.90;;;19.70;63.38;102427.16;5014538;28;20048;-81
2021/09/01 09:58:18;;;;;;;14.30;2.75;;;21.30;99.90;;;20.13;61.22;102457.59;5002833;28;20121;-80
2021/09/01 10:01:40;;;;;;;4.50;2.35;;;21.40;99.90;;;20.42;62.76;102495.94;5004199;28;20044;-81
2021/09/01 10:05:02;;;;;;;4.53;2.58;;;21.80;99.90;;;20.99;59.72;102499.66;4989807;28;20496;-81
2021/09/01 10:08:01;;;;;;;4.97;2.90;;;22.10;99.90;;;21.12;56.19;102508.63;5012132;28;20035;-81
2021/09/01 10:11:12;;;;;;;6.63;2.60;;;22.10;99.90;;;21.10;60.70;102505.19;5012780;28;20114;-80
2021/09/01 10:14:04;;;;;;;4.97;2.47;;;22.40;99.90;;;21.48;58.03;102513.50;5048722;28;20037;-81
2021/09/01 10:16:59;;;;;;;6.00;2.22;;;22.50;99.90;;;21.42;55.37;102518.38;4998289;28;20037;-81
2021/09/01 10:19:47;;;;;;;3.65;2.08;;;22.10;99.90;;;20.29;58.96;102447.66;4982934;28;20118;-80
2021/09/01 10:22:14;;;;;;;5.47;2.20;;;21.50;99.90;;;19.99;60.24;102423.63;5010465;28;20029;-81
2021/09/01 10:25:03;;;;;;;3.88;2.03;;;21.50;99.90;;;20.58;60.62;102469.16;4993418;28;20068;-81